Time;durP1;ratioP1;P1;durP2;ratioP2;P2;SDS_P1;SDS_P2;PMS_P1;PMS_P2;Temp;Humidity;BMP_temperature;BMP_pressure;BME280_temperature;BME280_humidity;BME280_pressure;Samples;Min_cycle;Max_cycle;Signal;HPM_P1;HPM_P2
2023/01/04 00:01:36;;;;;;;4.75;2.90;;;;;;;6.91;100.00;101717.94;5056934;28;20115;-81
2023/01/04 00:04:02;;;;;;;6.00;2.45;;;;;;;6.91;100.00;101715.28;5057242;28;20044;-82
2023/01/04 00:06:27;;;;;;;4.40;2.50;;;;;;;6.89;100.00;101715.38;5059868;28;20028;-80
2023/01/04 00:08:53;;;;;;;5.30;2.80;;;;;;;6.89;100.00;101699.50;5057461;28;20052;-80
2023/01/04 00:11:21;;;;;;;5.10;2.60;;;;;;;6.92;100.00;101701.97;5057013;28;20025;-79
2023/01/04 00:13:49;;;;;;;4.63;2.70;;;;;;;6.93;100.00;101708.97;5058812;28;20090;-80
2023/01/04 00:16:17;;;;;;;4.85;2.60;;;;;;;6.94;100.00;101683.34;5055964;28;20021;-82
2023/01/04 00:18:42;;;;;;;3.92;2.60;;;;;;;6.95;100.00;101690.34;5054777;28;20044;-84
2023/01/04 00:21:14;;;;;;;6.40;2.70;;;;;;;6.96;100.00;101682.31;5056820;28;20029;-83
2023/01/04 00:23:39;;;;;;;;;;;;;;;6.95;100.00;101687.69;5058578;28;20024;-81
2023/01/04 00:26:10;;;;;;;7.45;2.70;;;;;;;6.96;100.00;101694.69;5056928;28;19905;-82
2023/01/04 00:28:36;;;;;;;5.20;2.70;;;;;;;6.98;100.00;101676.94;5056103;28;20116;-80
2023/01/04 00:31:06;;;;;;;3.63;2.70;;;;;;;7.02;100.00;101681.09;5055004;28;20021;-78
2023/01/04 00:33:32;;;;;;;4.15;2.80;;;;;;;7.04;100.00;101668.59;5054644;28;20056;-80
2023/01/04 00:36:06;;;;;;;4.40;2.72;;;;;;;7.02;100.00;101658.09;5038312;28;20454;-82
2023/01/04 00:38:32;;;;;;;4.07;3.10;;;;;;;7.04;100.00;101674.72;5055534;28;20017;-83
2023/01/04 00:40:58;;;;;;;5.82;3.65;;;;;;;7.08;100.00;101654.25;5055542;28;20083;-81
2023/01/04 00:43:24;;;;;;;6.25;3.75;;;;;;;7.10;100.00;101654.13;5054792;28;20128;-82
2023/01/04 00:45:49;;;;;;;8.77;4.22;;;;;;;7.11;100.00;101659.34;5055147;28;20477;-79
2023/01/04 00:48:15;;;;;;;8.68;4.47;;;;;;;7.15;100.00;101629.09;5055154;28;20468;-80
2023/01/04 00:50:42;;;;;;;10.35;4.10;;;;;;;7.20;100.00;101631.44;5055525;28;20067;-83
2023/01/04 00:53:09;;;;;;;7.72;4.53;;;;;;;7.24;100.00;101633.78;5054920;28;20086;-82
2023/01/04 00:55:34;;;;;;;6.38;3.80;;;;;;;7.28;100.00;101625.66;5056711;28;20082;-84
2023/01/04 00:58:00;;;;;;;5.00;3.70;;;;;;;7.31;100.00;101628.09;5056687;28;20025;-83
2023/01/04 01:00:25;;;;;;;8.40;4.63;;;;;;;7.31;100.00;101613.06;5054395;28;20036;-82
2023/01/04 01:02:50;;;;;;;6.97;3.95;;;;;;;7.37;100.00;101617.09;5054756;28;20527;-83
2023/01/04 01:05:16;;;;;;;7.45;3.70;;;;;;;7.40;100.00;101632.78;5055772;28;20056;-85
2023/01/04 01:07:41;;;;;;;7.57;3.80;;;;;;;7.42;100.00;101633.56;5055604;28;20037;-84
2023/01/04 01:10:07;;;;;;;5.07;3.50;;;;;;;7.46;100.00;101621.81;5055424;28;20025;-85
2023/01/04 01:12:33;;;;;;;4.10;2.95;;;;;;;7.49;100.00;101623.41;5056711;28;20385;-85
2023/01/04 01:14:58;;;;;;;5.63;3.20;;;;;;;7.50;100.00;101615.38;5054344;28;20036;-84
2023/01/04 01:17:23;;;;;;;7.10;3.10;;;;;;;7.52;100.00;101620.56;5039004;28;20033;-84
2023/01/04 01:19:49;;;;;;;6.22;3.65;;;;;;;7.51;100.00;101619.72;5058187;28;20036;-82
2023/01/04 01:22:14;;;;;;;4.57;2.67;;;;;;;7.54;100.00;101627.47;5060142;28;20032;-85
2023/01/04 01:24:40;;;;;;;9.70;3.35;;;;;;;7.56;100.00;101619.41;5064265;28;20025;-84
2023/01/04 01:27:05;;;;;;;6.38;3.20;;;;;;;7.56;100.00;101617.59;5059194;28;20522;-83
2023/01/04 01:29:31;;;;;;;5.75;3.10;;;;;;;7.59;100.00;101617.41;5053709;28;20068;-83
2023/01/04 01:31:56;;;;;;;5.65;3.20;;;;;;;7.62;100.00;101620.81;5053928;28;20384;-84
2023/01/04 01:34:22;;;;;;;4.63;3.05;;;;;;;7.64;100.00;101605.66;5053708;28;20039;-84
2023/01/04 01:36:47;;;;;;;4.43;3.33;;;;;;;7.65;100.00;101615.31;5053987;28;20024;-85
2023/01/04 01:39:13;;;;;;;6.55;3.20;;;;;;;7.66;100.00;101615.22;5053008;28;20036;-85
2023/01/04 01:41:38;;;;;;;6.80;3.38;;;;;;;7.70;100.00;101608.78;5054138;28;20029;-83
2023/01/04 01:44:45;;;;;;;6.13;3.60;;;;;;;7.68;100.00;101610.66;5052874;28;20393;-82
2023/01/04 01:47:24;;;;;;;6.40;3.47;;;;;;;7.71;100.00;101605.16;5045477;28;20040;-83
2023/01/04 01:49:53;;;;;;;6.47;3.60;;;;;;;7.74;100.00;101609.41;5052677;28;20488;-84
2023/01/04 01:52:32;;;;;;;9.95;3.95;;;;;;;7.80;100.00;101603.69;5053425;28;20377;-84
2023/01/04 01:55:01;;;;;;;7.68;3.67;;;;;;;7.82;100.00;101603.59;5053753;28;20032;-85
2023/01/04 01:57:33;;;;;;;8.40;3.83;;;;;;;7.85;100.00;101600.75;5053258;28;20032;-85
2023/01/04 02:00:03;;;;;;;6.10;3.20;;;;;;;7.87;100.00;101601.50;5053670;28;20051;-85
2023/01/04 02:02:28;;;;;;;5.00;2.85;;;;;;;7.90;100.00;101601.28;5052831;28;20040;-83
2023/01/04 02:04:54;;;;;;;4.40;3.10;;;;;;;7.95;100.00;101612.41;5053074;28;20021;-84
2023/01/04 02:07:24;;;;;;;6.03;2.95;;;;;;;7.96;100.00;101608.81;5052907;28;20446;-82
2023/01/04 02:09:50;;;;;;;3.97;2.95;;;;;;;7.99;100.00;101594.53;5053350;28;20187;-84
2023/01/04 02:12:16;;;;;;;7.85;3.15;;;;;;;8.02;100.00;101608.41;5052091;28;20067;-84
2023/01/04 02:14:45;;;;;;;4.45;3.10;;;;;;;8.05;100.00;101613.50;5052993;28;20373;-84
2023/01/04 02:17:26;;;;;;;6.22;2.80;;;;;;;8.11;100.00;101614.91;5053296;28;20025;-85
2023/01/04 02:20:29;;;;;;;4.90;2.90;;;;;;;8.15;100.00;101607.56;5053366;28;20096;-85
2023/01/04 02:23:22;;;;;;;7.68;3.08;;;;;;;8.14;100.00;101601.44;5053476;28;20273;-85
2023/01/04 02:26:12;;;;;;;3.38;2.42;;;;;;;8.18;100.00;101602.94;5051951;28;20021;-85
2023/01/04 02:28:52;;;;;;;4.10;2.53;;;;;;;8.22;100.00;101609.69;5052494;28;20031;-84
2023/01/04 02:31:39;;;;;;;4.43;2.65;;;;;;;8.24;100.00;101597.19;5052954;28;20481;-84
2023/01/04 02:34:14;;;;;;;3.60;2.20;;;;;;;8.31;100.00;101597.63;5053264;28;20029;-82
2023/01/04 02:36:43;;;;;;;4.93;2.60;;;;;;;8.35;100.00;101593.81;5052578;28;20114;-83
2023/01/04 02:39:25;;;;;;;3.60;2.20;;;;;;;8.38;100.00;101587.44;5052917;28;20136;-83
2023/01/04 02:42:08;;;;;;;3.17;2.20;;;;;;;8.39;100.00;101595.28;5052051;28;20402;-83
2023/01/04 02:44:58;;;;;;;5.78;2.30;;;;;;;8.44;100.00;101577.28;5052375;28;20029;-83
2023/01/04 02:50:52;;;;;;;2.88;1.95;;;;;;;8.53;100.00;101581.09;5052592;28;20119;-84
2023/01/04 02:53:21;;;;;;;3.40;2.22;;;;;;;8.59;100.00;101572.69;5047496;28;20408;-84
2023/01/04 02:56:09;;;;;;;3.15;2.10;;;;;;;8.59;100.00;101587.78;5052324;28;20021;-85
2023/01/04 02:59:05;;;;;;;3.85;2.40;;;;;;;8.57;100.00;101582.59;5052283;28;20374;-84
2023/01/04 03:08:01;;;;;;;2.72;2.00;;;;;;;8.63;100.00;101552.97;5055837;28;20090;-83
2023/01/04 03:10:43;;;;;;;2.40;2.08;;;;;;;8.60;100.00;101561.16;5052079;28;20066;-83
2023/01/04 03:13:16;;;;;;;4.50;2.42;;;;;;;8.60;100.00;101555.00;5051413;28;20025;-84
2023/01/04 03:15:47;;;;;;;3.17;2.30;;;;;;;8.62;100.00;101553.91;5050767;28;20364;-84
2023/01/04 03:18:19;;;;;;;3.80;2.40;;;;;;;8.59;100.00;101554.13;5051923;28;20116;-84
2023/01/04 03:20:47;;;;;;;3.17;2.40;;;;;;;8.60;100.00;101557.66;5051792;28;20047;-82
2023/01/04 03:37:34;;;;;;;3.47;2.78;;;;;;;8.61;100.00;101544.28;5052442;28;20174;-84
2023/01/04 03:49:30;;;;;;;2.85;2.65;;;;;;;8.64;100.00;101529.94;5060390;28;20040;-84
2023/01/04 03:51:59;;;;;;;4.47;2.90;;;;;;;8.69;100.00;101521.63;5054072;28;20047;-84
2023/01/04 03:54:35;;;;;;;4.05;3.00;;;;;;;8.68;100.00;101528.75;5056427;28;20472;-85
2023/01/04 03:57:01;;;;;;;5.38;3.13;;;;;;;8.73;100.00;101523.97;5055832;28;20090;-83
2023/01/04 03:59:27;;;;;;;4.40;3.00;;;;;;;8.74;100.00;101508.91;5055236;28;20048;-83
2023/01/04 04:01:52;;;;;;;7.22;3.20;;;;;;;8.74;100.00;101517.69;5053805;28;20516;-83
2023/01/04 04:09:47;;;;;;;6.25;2.63;;;;;;;8.89;100.00;101480.41;5055138;28;20051;-84
2023/01/04 04:12:12;;;;;;;7.03;2.83;;;;;;;8.90;100.00;101485.59;5055388;28;20033;-84
2023/01/04 04:14:37;;;;;;;6.70;2.53;;;;;;;8.92;100.00;101477.53;5053562;28;20393;-84
2023/01/04 04:17:03;;;;;;;7.15;2.60;;;;;;;8.91;100.00;101483.78;5053716;28;20025;-84
2023/01/04 04:19:28;;;;;;;7.50;2.33;;;;;;;9.01;100.00;101479.50;5055215;28;20086;-84
2023/01/04 04:21:53;;;;;;;5.53;2.17;;;;;;;9.07;100.00;101486.16;5054591;28;20112;-85
2023/01/04 04:24:23;;;;;;;7.55;2.67;;;;;;;9.11;100.00;101477.84;5053992;28;20468;-83
2023/01/04 04:26:49;;;;;;;11.20;2.47;;;;;;;9.24;100.00;101480.47;5054995;28;20039;-82
2023/01/04 04:29:15;;;;;;;5.07;1.80;;;;;;;9.30;100.00;101473.81;5054920;28;20104;-85
2023/01/04 04:31:40;;;;;;;6.75;1.83;;;;;;;9.32;100.00;101487.84;5054522;28;20383;-83
2023/01/04 04:34:06;;;;;;;9.25;2.05;;;;;;;9.33;100.00;101474.44;5058568;28;20505;-83
2023/01/04 04:36:31;;;;;;;4.80;1.92;;;;;;;9.36;100.00;101476.03;5056290;28;20029;-85
2023/01/04 04:38:56;;;;;;;8.15;2.20;;;;;;;9.38;100.00;101475.91;5055796;28;20444;-84
2023/01/04 04:41:39;;;;;;;4.53;1.60;;;;;;;9.40;100.00;101473.97;5054501;28;20049;-84
2023/01/04 04:44:13;;;;;;;6.28;1.95;;;;;;;9.41;100.00;101460.59;5054756;28;20037;-84
2023/01/04 04:46:38;;;;;;;2.85;1.30;;;;;;;9.42;100.00;101462.28;5054227;28;20032;-83
2023/01/04 04:49:04;;;;;;;6.03;2.10;;;;;;;9.38;100.00;101466.13;5053745;28;20029;-83
2023/01/04 04:51:29;;;;;;;6.18;1.98;;;;;;;9.33;100.00;101468.28;5054101;28;20037;-82
2023/01/04 04:53:55;;;;;;;5.82;1.90;;;;;;;9.30;100.00;101466.72;5053620;28;20035;-82
2023/01/04 04:56:20;;;;;;;6.25;2.00;;;;;;;9.26;100.00;101456.44;5054224;28;20039;-82
2023/01/04 04:58:46;;;;;;;5.85;1.77;;;;;;;9.22;100.00;101462.94;5052377;28;20021;-82
2023/01/04 05:01:12;;;;;;;3.28;2.00;;;;;;;9.19;100.00;101450.72;5054167;28;20056;-82
2023/01/04 05:03:37;;;;;;;5.40;1.90;;;;;;;9.21;100.00;101446.16;5053739;28;20029;-84
2023/01/04 05:06:03;;;;;;;3.78;1.85;;;;;;;9.19;100.00;101448.06;5053392;28;20064;-83
2023/01/04 05:08:28;;;;;;;3.35;1.50;;;;;;;9.18;100.00;101428.66;5054195;28;20533;-82
2023/01/04 05:10:54;;;;;;;3.65;2.13;;;;;;;9.16;100.00;101424.41;5053593;28;20063;-81
2023/01/04 05:13:19;;;;;;;1.55;1.40;;;;;;;9.17;100.00;101432.25;5054054;28;20033;-82
2023/01/04 05:15:48;;;;;;;2.30;1.50;;;;;;;9.16;100.00;101419.94;5053591;28;20369;-79
2023/01/04 05:18:15;;;;;;;2.60;1.40;;;;;;;9.15;100.00;101420.91;5054235;28;20162;-80
2023/01/04 05:20:40;;;;;;;4.07;1.85;;;;;;;9.15;100.00;101428.03;5053102;28;20032;-80
2023/01/04 05:23:07;;;;;;;4.50;2.17;;;;;;;9.16;100.00;101417.28;5053853;28;20096;-80
2023/01/04 05:25:33;;;;;;;4.68;2.28;;;;;;;9.16;100.00;101421.75;5052626;28;20423;-80
2023/01/04 05:27:58;;;;;;;2.50;2.10;;;;;;;9.13;100.00;101409.56;5053129;28;20024;-80
2023/01/04 05:33:09;;;;;;;2.97;2.13;;;;;;;9.15;100.00;101406.78;5053173;28;20107;-80
2023/01/04 05:35:34;;;;;;;3.20;2.15;;;;;;;9.15;100.00;101407.66;5053875;28;20020;-80
2023/01/04 05:38:00;;;;;;;4.65;2.40;;;;;;;9.15;100.00;101399.69;5053384;28;20025;-81
2023/01/04 05:40:25;;;;;;;6.70;2.53;;;;;;;9.13;100.00;101414.84;5053875;28;20106;-81
2023/01/04 05:42:51;;;;;;;3.33;2.30;;;;;;;9.18;100.00;101398.56;5052883;28;20025;-83
2023/01/04 05:45:19;;;;;;;3.88;2.50;;;;;;;9.20;100.00;101401.16;5053491;28;20029;-82
2023/01/04 05:47:47;;;;;;;4.75;2.30;;;;;;;9.18;100.00;101402.09;5053374;28;20036;-82
2023/01/04 05:50:12;;;;;;;4.10;2.20;;;;;;;9.18;100.00;101407.41;5053040;28;20527;-82
2023/01/04 05:52:38;;;;;;;5.15;2.60;;;;;;;9.20;100.00;101425.88;5053412;28;20033;-83
2023/01/04 05:55:03;;;;;;;5.63;2.20;;;;;;;9.25;100.00;101438.81;5053052;28;20373;-82
2023/01/04 05:57:29;;;;;;;4.53;2.30;;;;;;;9.27;100.00;101431.56;5053149;28;20051;-84
2023/01/04 05:59:54;;;;;;;7.30;2.30;;;;;;;9.28;100.00;101436.75;5053036;28;20107;-83
2023/01/04 06:02:22;;;;;;;3.78;2.17;;;;;;;9.34;100.00;101438.97;5052793;28;20472;-84
2023/01/04 06:04:48;;;;;;;4.13;2.20;;;;;;;9.34;100.00;101427.47;5053621;28;20046;-84
2023/01/04 06:07:14;;;;;;;3.63;2.10;;;;;;;9.37;100.00;101421.94;5051988;28;20111;-84
2023/01/04 06:09:40;;;;;;;3.80;2.42;;;;;;;9.39;100.00;101416.50;5053558;28;20060;-84
2023/01/04 06:12:05;;;;;;;6.53;2.03;;;;;;;9.40;100.00;101419.03;5052684;28;20061;-84
2023/01/04 06:14:31;;;;;;;11.10;2.40;;;;;;;9.42;100.00;101429.53;5051518;28;20029;-83
2023/01/04 06:16:56;;;;;;;7.28;2.40;;;;;;;9.42;100.00;101413.59;5052486;28;20033;-83
2023/01/04 06:19:22;;;;;;;7.95;2.10;;;;;;;9.47;100.00;101420.28;5052773;28;20024;-82
2023/01/04 06:21:48;;;;;;;8.13;1.90;;;;;;;9.46;100.00;101407.09;5052794;28;20025;-82
2023/01/04 06:24:13;;;;;;;7.70;2.25;;;;;;;9.43;100.00;101429.44;5052409;28;20487;-83
2023/01/04 06:26:38;;;;;;;4.88;1.60;;;;;;;9.45;100.00;101414.25;5051541;28;20044;-83
2023/01/04 06:29:04;;;;;;;10.75;2.30;;;;;;;9.45;100.00;101408.06;5052315;28;20039;-83
2023/01/04 06:31:29;;;;;;;13.68;2.58;;;;;;;9.46;100.00;101413.25;5052989;28;20021;-83
2023/01/04 06:33:55;;;;;;;7.78;2.60;;;;;;;9.46;100.00;101412.41;5052369;28;20021;-82
2023/01/04 06:36:21;;;;;;;7.97;2.45;;;;;;;9.44;100.00;101412.53;5052661;28;20113;-83
2023/01/04 06:38:47;;;;;;;9.98;2.13;;;;;;;9.43;100.00;101396.72;5052687;28;20027;-83
2023/01/04 06:41:13;;;;;;;11.95;2.63;;;;;;;9.44;100.00;101388.63;5052105;28;20051;-83
2023/01/04 06:43:38;;;;;;;9.98;2.47;;;;;;;9.46;100.00;101388.50;5052672;28;20021;-83
2023/01/04 06:46:03;;;;;;;17.90;3.05;;;;;;;9.47;100.00;101385.75;5052364;28;20063;-82
2023/01/04 06:48:29;;;;;;;10.10;2.50;;;;;;;9.52;100.00;101402.19;5052984;28;20025;-83
2023/01/04 06:50:54;;;;;;;14.90;2.80;;;;;;;9.52;100.00;101390.69;5052561;28;20037;-84
2023/01/04 06:53:20;;;;;;;10.15;2.55;;;;;;;9.53;100.00;101390.56;5052249;28;20442;-83
2023/01/04 06:55:45;;;;;;;10.88;2.25;;;;;;;9.57;100.00;101380.56;5051256;28;20056;-81
2023/01/04 06:58:11;;;;;;;9.52;2.25;;;;;;;9.60;100.00;101390.09;5052395;28;20041;-82
2023/01/04 07:00:36;;;;;;;12.13;2.58;;;;;;;9.61;100.00;101394.44;5052673;28;20036;-82
2023/01/04 07:03:02;;;;;;;11.20;2.17;;;;;;;9.61;100.00;101382.00;5051797;28;20033;-81
2023/01/04 07:05:27;;;;;;;12.13;2.60;;;;;;;9.62;100.00;101380.22;5052634;28;20025;-82
2023/01/04 07:07:53;;;;;;;11.07;2.67;;;;;;;9.59;100.00;101383.94;5052230;28;20453;-81
2023/01/04 07:10:18;;;;;;;11.25;2.35;;;;;;;9.61;100.00;101375.84;5050742;28;20372;-78
2023/01/04 07:12:44;;;;;;;13.02;2.80;;;;;;;9.60;100.00;101367.03;5052262;28;20094;-78
2023/01/04 07:15:10;;;;;;;13.82;2.58;;;;;;;9.60;100.00;101342.28;5054964;28;20467;-77
2023/01/04 07:17:35;;;;;;;12.63;3.05;;;;;;;9.59;100.00;101364.50;5055799;28;20112;-81
2023/01/04 07:20:02;;;;;;;11.30;2.50;;;;;;;9.59;100.00;101353.88;5055758;28;20047;-80
2023/01/04 07:22:28;;;;;;;11.38;2.33;;;;;;;9.57;100.00;101366.41;5055024;28;20032;-79
2023/01/04 07:24:53;;;;;;;16.85;2.67;;;;;;;9.57;100.00;101361.09;5056082;28;20024;-80
2023/01/04 07:27:19;;;;;;;12.40;2.75;;;;;;;9.56;100.00;101347.00;5056338;28;20108;-79
2023/01/04 07:29:45;;;;;;;11.20;2.15;;;;;;;9.58;100.00;101368.13;5055885;28;20086;-79
2023/01/04 07:32:11;;;;;;;8.05;2.00;;;;;;;9.56;100.00;101360.28;5050620;28;20045;-77
2023/01/04 07:34:37;;;;;;;9.20;2.25;;;;;;;9.56;100.00;101359.44;5033123;28;20029;-78
2023/01/04 07:37:03;;;;;;;10.57;2.08;;;;;;;9.53;100.00;101361.34;5033201;28;20079;-78
2023/01/04 07:39:28;;;;;;;9.07;2.22;;;;;;;9.57;100.00;101363.75;5032468;28;20596;-80
2023/01/04 07:41:54;;;;;;;12.27;2.40;;;;;;;9.58;100.00;101350.34;5033112;28;20042;-83
2023/01/04 07:44:24;;;;;;;10.85;1.90;;;;;;;9.59;100.00;101369.81;5032555;28;20487;-81
2023/01/04 07:46:49;;;;;;;9.00;1.83;;;;;;;9.57;100.00;101367.28;5033221;28;20037;-79
2023/01/04 07:49:17;;;;;;;11.75;2.45;;;;;;;9.56;100.00;101354.97;5032481;28;20059;-80
2023/01/04 07:51:42;;;;;;;7.30;1.80;;;;;;;9.55;100.00;101363.06;5032840;28;20036;-80
2023/01/04 07:54:09;;;;;;;6.88;1.73;;;;;;;9.55;100.00;101371.84;5032616;28;20029;-80
2023/01/04 07:56:34;;;;;;;6.22;1.75;;;;;;;9.55;100.00;101350.59;5032875;28;20068;-78
2023/01/04 07:58:59;;;;;;;9.65;2.40;;;;;;;9.54;100.00;101359.56;5031784;28;20065;-84
2023/01/04 08:01:25;;;;;;;18.30;3.30;;;;;;;9.53;100.00;101364.00;5032329;28;20064;-77
2023/01/04 08:03:53;;;;;;;15.60;3.17;;;;;;;9.55;100.00;101363.06;5032525;28;20385;-78
2023/01/04 08:06:20;;;;;;;21.20;4.00;;;;;;;9.53;100.00;101349.88;5032347;28;20037;-77
2023/01/04 08:08:45;;;;;;;23.45;3.35;;;;;;;9.52;100.00;101374.75;5032320;28;20037;-78
2023/01/04 08:11:14;;;;;;;26.17;3.67;;;;;;;9.49;100.00;101365.22;5031963;28;20049;-79
2023/01/04 08:13:41;;;;;;;22.27;3.92;;;;;;;9.49;100.00;101367.88;5032499;28;20033;-78
2023/01/04 08:16:07;;;;;;;21.50;4.65;;;;;;;9.46;100.00;101368.09;5047201;28;20028;-79
2023/01/04 08:18:32;;;;;;;17.92;3.20;;;;;;;9.47;100.00;101388.41;5054024;28;20025;-79
2023/01/04 08:21:06;;;;;;;16.73;3.00;;;;;;;9.48;100.00;101386.56;5053963;28;20090;-83
2023/01/04 08:23:33;;;;;;;22.80;4.18;;;;;;;9.43;100.00;101386.94;5053298;28;20025;-80
2023/01/04 08:26:10;;;;;;;20.10;3.72;;;;;;;9.40;100.00;101392.47;5054535;28;20355;-79
2023/01/04 08:28:36;;;;;;;20.00;3.00;;;;;;;9.39;100.00;101372.22;5056487;28;20111;-80
2023/01/04 08:31:08;;;;;;;28.25;4.20;;;;;;;9.40;100.00;101410.25;5054435;28;20151;-83
2023/01/04 08:33:35;;;;;;;20.42;4.95;;;;;;;9.39;100.00;101380.19;5054287;28;20037;-81
2023/01/04 08:36:07;;;;;;;24.30;4.13;;;;;;;9.41;100.00;101388.88;5054681;28;20036;-81
2023/01/04 08:38:33;;;;;;;35.25;4.82;;;;;;;9.40;100.00;101379.19;5054159;28;20414;-81
2023/01/04 08:40:58;;;;;;;32.28;5.07;;;;;;;9.43;100.00;101399.38;5054333;28;20128;-81
2023/01/04 08:43:23;;;;;;;25.52;4.22;;;;;;;9.43;100.00;101394.91;5054121;28;20025;-81
2023/01/04 08:45:49;;;;;;;29.40;4.93;;;;;;;9.44;100.00;101420.50;5054701;28;20080;-79
2023/01/04 08:48:14;;;;;;;32.95;5.32;;;;;;;9.41;100.00;101420.75;5054527;28;20103;-79
2023/01/04 08:50:40;;;;;;;35.85;4.90;;;;;;;9.43;100.00;101415.31;5054807;28;20033;-80
2023/01/04 08:53:06;;;;;;;23.27;3.97;;;;;;;9.43;100.00;101410.00;5054448;28;20079;-80
2023/01/04 08:55:31;;;;;;;24.05;4.47;;;;;;;9.43;100.00;101428.59;5053983;28;20028;-80
2023/01/04 08:57:59;;;;;;;28.20;3.85;;;;;;;9.40;100.00;101415.56;5054410;28;20025;-81
2023/01/04 09:00:24;;;;;;;29.27;4.15;;;;;;;9.41;100.00;101431.38;5053776;28;20029;-80
2023/01/04 09:02:50;;;;;;;24.35;4.35;;;;;;;9.43;100.00;101417.97;5055578;28;20029;-81
2023/01/04 09:05:18;;;;;;;20.65;3.38;;;;;;;9.46;100.00;101404.44;5059891;28;20031;-81
2023/01/04 09:07:43;;;;;;;22.70;4.85;;;;;;;9.47;100.00;101422.09;5060257;28;20457;-80
2023/01/04 09:10:09;;;;;;;19.48;3.42;;;;;;;9.45;100.00;101414.25;5057890;28;20033;-82
2023/01/04 09:12:34;;;;;;;16.98;3.53;;;;;;;9.49;100.00;101420.16;5060659;28;20112;-83
2023/01/04 09:15:00;;;;;;;19.05;3.58;;;;;;;9.49;100.00;101418.38;5058733;28;20534;-82
2023/01/04 09:17:25;;;;;;;26.13;3.80;;;;;;;9.50;100.00;101435.13;5059855;28;20060;-83
2023/01/04 09:19:50;;;;;;;23.23;3.47;;;;;;;9.48;100.00;101419.31;5057544;28;20105;-82
2023/01/04 09:22:16;;;;;;;21.80;3.70;;;;;;;9.47;100.00;101438.88;5054375;28;20029;-85
2023/01/04 09:24:41;;;;;;;20.35;3.22;;;;;;;9.49;100.00;101444.06;5052416;28;20124;-83
2023/01/04 09:27:07;;;;;;;21.05;4.05;;;;;;;9.50;100.00;101443.09;5053781;28;20100;-83
2023/01/04 09:29:32;;;;;;;23.65;3.53;;;;;;;9.49;100.00;101455.56;5053226;28;20465;-82
2023/01/04 09:31:57;;;;;;;30.27;4.63;;;;;;;9.50;100.00;101451.06;5053307;28;20377;-82
2023/01/04 09:34:23;;;;;;;19.58;3.60;;;;;;;9.51;100.00;101447.47;5053184;28;20112;-82
2023/01/04 09:36:49;;;;;;;34.75;4.03;;;;;;;9.49;100.00;101446.72;5052465;28;20035;-83
2023/01/04 09:39:16;;;;;;;24.23;4.28;;;;;;;9.50;100.00;101438.63;5052907;28;20535;-82
2023/01/04 09:42:04;;;;;;;25.80;4.28;;;;;;;9.49;100.00;101439.63;5053027;28;20128;-81
2023/01/04 09:44:38;;;;;;;23.73;4.40;;;;;;;9.52;100.00;101447.34;5052963;28;20032;-83
2023/01/04 09:47:13;;;;;;;31.58;4.95;;;;;;;9.50;100.00;101456.38;5053334;28;20104;-82
2023/01/04 09:49:50;;;;;;;21.40;3.85;;;;;;;9.52;100.00;101457.97;5053274;28;20515;-82
2023/01/04 09:52:26;;;;;;;24.85;4.75;;;;;;;9.57;100.00;101449.66;5053610;28;20032;-83
2023/01/04 09:55:01;;;;;;;24.58;4.13;;;;;;;9.60;100.00;101449.41;5052130;28;20428;-83
2023/01/04 09:57:30;;;;;;;20.05;3.72;;;;;;;9.58;100.00;101464.59;5053111;28;20033;-82
2023/01/04 10:00:01;;;;;;;22.27;3.40;;;;;;;9.64;100.00;101455.31;5053036;28;20060;-83
2023/01/04 10:02:39;;;;;;;22.75;3.53;;;;;;;9.64;100.00;101458.84;5052678;28;20100;-81
2023/01/04 10:05:07;;;;;;;26.77;4.35;;;;;;;9.63;100.00;101449.16;5053252;28;20090;-83
2023/01/04 10:07:33;;;;;;;22.80;3.00;;;;;;;9.63;100.00;101441.19;5052513;28;20036;-83
2023/01/04 10:09:59;;;;;;;22.42;4.03;;;;;;;9.66;100.00;101437.47;5053002;28;20074;-82
2023/01/04 10:12:52;;;;;;;17.55;3.22;;;;;;;9.68;100.00;101444.34;5052930;28;20025;-81
2023/01/04 10:15:31;;;;;;;23.38;4.13;;;;;;;9.67;100.00;101433.81;5053257;28;20037;-82
2023/01/04 10:18:18;;;;;;;14.52;2.70;;;;;;;9.66;100.00;101454.25;5052715;28;20029;-83
2023/01/04 10:21:08;;;;;;;21.83;3.00;;;;;;;9.64;100.00;101445.56;5052481;28;20028;-82
2023/01/04 10:23:58;;;;;;;17.27;3.15;;;;;;;9.66;100.00;101438.31;5052282;28;20521;-82
2023/01/04 10:26:33;;;;;;;16.73;3.25;;;;;;;9.67;100.00;101445.31;5051610;28;20021;-82
2023/01/04 10:29:29;;;;;;;15.43;2.70;;;;;;;9.66;100.00;101440.97;5052546;28;20025;-82
2023/01/04 10:32:02;;;;;;;14.82;2.83;;;;;;;9.69;100.00;101446.03;5051360;28;20472;-81
2023/01/04 10:34:47;;;;;;;10.10;2.10;;;;;;;9.73;100.00;101449.28;5051397;28;20052;-80
2023/01/04 10:37:21;;;;;;;14.13;2.38;;;;;;;9.73;100.00;101441.31;5052049;28;20503;-82
2023/01/04 10:39:51;;;;;;;17.60;2.75;;;;;;;9.73;100.00;101443.97;5052136;28;20078;-82
2023/01/04 10:42:21;;;;;;;12.80;2.47;;;;;;;9.72;100.00;101442.31;5052536;28;20377;-81
2023/01/04 10:45:26;;;;;;;19.48;2.60;;;;;;;9.70;100.00;101438.91;5052233;28;20052;-81
2023/01/04 10:48:07;;;;;;;13.30;2.45;;;;;;;9.71;100.00;101429.97;5053247;28;20035;-80
2023/01/04 10:50:38;;;;;;;14.40;2.65;;;;;;;9.68;100.00;101436.38;5056597;28;20410;-79
2023/01/04 10:53:12;;;;;;;12.65;2.30;;;;;;;9.69;100.00;101427.44;5056914;28;20068;-81
2023/01/04 10:55:37;;;;;;;20.83;3.67;;;;;;;9.70;100.00;101434.44;5054716;28;20364;-82
2023/01/04 10:58:11;;;;;;;14.63;2.55;;;;;;;9.69;100.00;101422.13;5056246;28;20032;-83
2023/01/04 11:00:53;;;;;;;18.70;2.60;;;;;;;9.75;100.00;101404.88;5055875;28;20021;-81
2023/01/04 11:03:32;;;;;;;16.33;2.65;;;;;;;9.77;100.00;101428.66;5056271;28;20431;-81
2023/01/04 11:06:12;;;;;;;12.63;2.47;;;;;;;9.80;100.00;101397.34;5056075;28;20017;-81
2023/01/04 11:08:48;;;;;;;16.20;2.55;;;;;;;9.81;100.00;101415.00;5056163;28;20461;-83
2023/01/04 11:11:20;;;;;;;11.50;2.35;;;;;;;9.85;100.00;101392.53;5056357;28;20104;-83
2023/01/04 11:13:47;;;;;;;22.08;2.70;;;;;;;9.84;100.00;101397.97;5055514;28;20033;-82
2023/01/04 11:16:13;;;;;;;15.73;2.85;;;;;;;9.88;100.00;101396.75;5056354;28;20112;-83
2023/01/04 11:18:41;;;;;;;17.80;3.15;;;;;;;9.89;100.00;101383.34;5055671;28;20116;-81
2023/01/04 11:21:11;;;;;;;18.20;3.17;;;;;;;9.92;100.00;101403.53;5056306;28;20104;-80
2023/01/04 11:23:37;;;;;;;17.60;3.17;;;;;;;9.99;100.00;101407.41;5056088;28;20033;-82
2023/01/04 11:26:10;;;;;;;15.85;2.47;;;;;;;10.05;100.00;101385.63;5056190;28;20039;-81
2023/01/04 11:28:52;;;;;;;21.27;3.78;;;;;;;10.07;100.00;101386.34;5055810;28;20465;-82
2023/01/04 11:31:26;;;;;;;22.10;3.85;;;;;;;10.10;100.00;101419.00;5056098;28;20092;-82
2023/01/04 11:34:00;;;;;;;16.05;3.20;;;;;;;10.10;100.00;101409.19;5055592;28;20040;-82
2023/01/04 11:36:44;;;;;;;14.23;3.25;;;;;;;10.15;100.00;101395.53;5055567;28;20081;-82
2023/01/04 11:39:23;;;;;;;19.00;3.80;;;;;;;10.17;100.00;101404.25;5055654;28;20037;-80
2023/01/04 11:42:03;;;;;;;26.15;4.22;;;;;;;10.22;100.00;101423.34;5055316;28;20033;-81
2023/01/04 11:44:29;;;;;;;22.35;3.55;;;;;;;10.19;100.00;101405.78;5055542;28;20059;-82
2023/01/04 11:47:06;;;;;;;24.83;4.45;;;;;;;10.19;100.00;101386.34;5055287;28;20461;-83
2023/01/04 11:49:35;;;;;;;19.92;3.47;;;;;;;10.16;100.00;101399.88;5055428;28;20025;-80
2023/01/04 11:52:01;;;;;;;21.90;3.53;;;;;;;10.20;100.00;101425.28;5055054;28;20029;-82
2023/01/04 11:54:26;;;;;;;24.05;3.65;;;;;;;10.22;100.00;101400.22;5055264;28;20079;-81
2023/01/04 11:57:00;;;;;;;29.80;4.15;;;;;;;10.27;100.00;101407.00;5055306;28;20024;-83
2023/01/04 11:59:26;;;;;;;24.35;3.55;;;;;;;10.34;100.00;101384.28;5054390;28;20056;-81
2023/01/04 12:02:20;;;;;;;24.38;3.42;;;;;;;10.37;100.00;101392.03;5054871;28;20112;-81
2023/01/04 12:04:45;;;;;;;22.65;4.40;;;;;;;10.45;100.00;101402.91;5054987;28;20113;-80
2023/01/04 12:07:30;;;;;;;16.27;3.40;;;;;;;10.50;100.00;101389.22;5054095;28;20372;-82
2023/01/04 12:10:00;;;;;;;30.42;3.88;;;;;;;10.48;100.00;101407.97;5054423;28;20465;-82
2023/01/04 12:12:30;;;;;;;17.05;3.55;;;;;;;10.50;100.00;101389.22;5055051;28;20021;-82
2023/01/04 12:14:59;;;;;;;20.67;3.35;;;;;;;10.46;100.00;101385.94;5054487;28;20051;-82